createdAt,value
2018-08-12T00:01:44.780Z,3.00
2018-08-12T00:04:13.026Z,2.92
2018-08-12T00:06:41.155Z,2.80
2018-08-12T00:09:10.204Z,2.90
2018-08-12T00:11:38.351Z,3.45
2018-08-12T00:14:07.067Z,3.05
2018-08-12T00:16:35.681Z,2.95
2018-08-12T00:19:04.023Z,2.80
2018-08-12T00:21:32.606Z,2.60
2018-08-12T00:24:00.811Z,2.70
2018-08-12T00:26:29.302Z,2.85
2018-08-12T00:28:57.535Z,3.20
2018-08-12T00:31:25.811Z,3.17
2018-08-12T00:33:53.904Z,3.67
2018-08-12T00:36:22.095Z,3.33
2018-08-12T00:38:50.234Z,3.30
2018-08-12T00:41:18.338Z,4.17
2018-08-12T00:43:46.556Z,4.42
2018-08-12T00:46:14.739Z,4.10
2018-08-12T00:48:42.854Z,4.00
2018-08-12T00:51:11.048Z,4.30
2018-08-12T00:53:39.199Z,4.37
2018-08-12T00:56:07.330Z,4.33
2018-08-12T00:58:35.815Z,4.42
2018-08-12T01:01:03.964Z,4.95
2018-08-12T01:03:32.512Z,5.53
2018-08-12T01:06:00.652Z,5.47
2018-08-12T01:08:28.926Z,5.35
2018-08-12T01:10:57.029Z,6.30
2018-08-12T01:13:25.294Z,5.10
2018-08-12T01:15:53.553Z,5.15
2018-08-12T01:18:21.715Z,4.83
2018-08-12T01:20:49.927Z,5.12
2018-08-12T01:23:18.063Z,6.00
2018-08-12T01:25:46.326Z,4.72
2018-08-12T01:28:14.435Z,4.17
2018-08-12T01:30:42.620Z,4.80
2018-08-12T01:33:10.735Z,4.53
2018-08-12T01:35:38.851Z,4.22
2018-08-12T01:38:06.967Z,4.47
2018-08-12T01:40:35.254Z,6.05
2018-08-12T01:43:03.593Z,5.80
2018-08-12T01:45:31.758Z,5.60
2018-08-12T01:47:59.859Z,5.15
2018-08-12T01:50:28.007Z,6.22
2018-08-12T01:52:56.166Z,5.55
2018-08-12T01:55:24.283Z,6.17
2018-08-12T01:57:52.414Z,7.62
2018-08-12T02:00:21.867Z,5.75
2018-08-12T02:02:50.524Z,5.55
2018-08-12T02:05:19.107Z,6.10
2018-08-12T02:07:47.792Z,6.10
2018-08-12T02:10:15.902Z,6.15
2018-08-12T02:12:44.006Z,6.12
2018-08-12T02:15:12.527Z,5.50
2018-08-12T02:17:41.200Z,5.33
2018-08-12T02:20:10.181Z,4.70
2018-08-12T02:22:39.174Z,5.45
2018-08-12T02:25:08.143Z,5.40
2018-08-12T02:27:36.413Z,5.03
2018-08-12T02:30:05.230Z,5.83
2018-08-12T02:32:33.497Z,5.67
2018-08-12T02:35:01.629Z,5.15
2018-08-12T02:37:30.190Z,5.85
2018-08-12T02:39:58.519Z,4.97
2018-08-12T02:42:26.745Z,5.28
2018-08-12T02:44:55.109Z,5.85
2018-08-12T02:47:23.219Z,5.47
2018-08-12T02:49:51.690Z,5.58
2018-08-12T02:52:20.002Z,5.17
2018-08-12T02:54:48.111Z,5.50
2018-08-12T02:57:16.294Z,5.45
2018-08-12T02:59:44.421Z,5.58
2018-08-12T03:02:12.759Z,5.75
2018-08-12T03:04:41.276Z,5.40
2018-08-12T03:07:09.434Z,5.22
2018-08-12T03:09:37.591Z,4.97
2018-08-12T03:12:06.103Z,4.72
2018-08-12T03:14:34.669Z,5.60
2018-08-12T03:17:02.818Z,4.58
2018-08-12T03:19:30.999Z,4.22
2018-08-12T03:21:59.115Z,4.67
2018-08-12T03:24:27.263Z,4.65
2018-08-12T03:26:55.786Z,4.90
2018-08-12T03:29:24.028Z,4.95
2018-08-12T03:31:52.430Z,5.97
2018-08-12T03:34:20.476Z,4.50
2018-08-12T03:36:48.591Z,4.53
2018-08-12T03:39:16.804Z,4.90
2018-08-12T03:41:44.958Z,5.35
2018-08-12T03:44:13.090Z,4.78
2018-08-12T03:46:41.336Z,4.90
2018-08-12T03:49:09.552Z,5.15
2018-08-12T03:51:37.813Z,4.83
2018-08-12T03:54:06.170Z,4.90
2018-08-12T03:56:34.486Z,4.72
2018-08-12T03:59:02.621Z,5.35
2018-08-12T04:01:30.855Z,5.25
2018-08-12T04:03:58.994Z,4.60
2018-08-12T04:06:27.116Z,4.75
2018-08-12T04:08:55.437Z,4.50
2018-08-12T04:11:23.611Z,4.62
2018-08-12T04:13:51.760Z,4.17
2018-08-12T04:16:19.887Z,4.80
2018-08-12T04:18:48.041Z,4.17
2018-08-12T04:21:16.354Z,4.55
2018-08-12T04:23:44.470Z,4.62
2018-08-12T04:26:12.614Z,4.53
2018-08-12T04:28:40.752Z,4.95
2018-08-12T04:31:08.870Z,4.80
2018-08-12T04:33:37.425Z,4.60
2018-08-12T04:36:05.646Z,4.62
2018-08-12T04:38:33.787Z,4.37
2018-08-12T04:41:01.899Z,4.42
2018-08-12T04:43:30.002Z,4.95
2018-08-12T04:45:58.199Z,4.78
2018-08-12T04:48:26.307Z,4.65
2018-08-12T04:50:54.480Z,4.95
2018-08-12T04:53:22.626Z,4.62
2018-08-12T04:55:50.791Z,5.10
2018-08-12T04:58:19.194Z,4.37
2018-08-12T05:00:47.337Z,4.50
2018-08-12T05:03:15.430Z,4.97
2018-08-12T05:05:43.622Z,4.90
2018-08-12T05:08:11.834Z,4.80
2018-08-12T05:10:40.184Z,4.75
2018-08-12T05:13:08.520Z,4.58
2018-08-12T05:15:36.638Z,4.28
2018-08-12T05:18:04.852Z,4.85
2018-08-12T05:20:33.290Z,5.00
2018-08-12T05:23:01.579Z,4.80
2018-08-12T05:25:29.687Z,5.20
2018-08-12T05:27:57.870Z,4.33
2018-08-12T05:30:26.094Z,5.05
2018-08-12T05:32:54.214Z,4.58
2018-08-12T05:35:22.568Z,4.67
2018-08-12T05:37:50.800Z,4.50
2018-08-12T05:40:18.906Z,4.35
2018-08-12T05:42:47.044Z,4.80
2018-08-12T05:45:15.182Z,4.85
2018-08-12T05:47:43.429Z,4.35
2018-08-12T05:50:11.674Z,4.45
2018-08-12T05:52:39.819Z,4.75
2018-08-12T05:55:08.655Z,4.25
2018-08-12T05:57:36.887Z,4.75
2018-08-12T06:00:07.027Z,4.47
2018-08-12T06:02:35.419Z,4.40
2018-08-12T06:05:03.537Z,5.03
2018-08-12T06:07:31.728Z,4.40
2018-08-12T06:09:59.954Z,5.25
2018-08-12T06:12:28.199Z,4.65
2018-08-12T06:14:56.431Z,4.37
2018-08-12T06:17:24.774Z,4.97
2018-08-12T06:19:52.864Z,4.75
2018-08-12T06:22:20.994Z,4.25
2018-08-12T06:24:49.165Z,4.15
2018-08-12T06:27:17.841Z,4.75
2018-08-12T06:29:46.083Z,4.50
2018-08-12T06:32:14.448Z,4.00
2018-08-12T06:34:42.784Z,3.83
2018-08-12T06:37:11.260Z,3.80
2018-08-12T06:39:39.458Z,4.42
2018-08-12T06:42:07.811Z,4.40
2018-08-12T06:44:36.148Z,3.83
2018-08-12T06:47:04.294Z,3.98
2018-08-12T06:49:32.425Z,3.87
2018-08-12T06:52:00.585Z,4.17
2018-08-12T06:54:28.777Z,3.72
2018-08-12T06:56:56.884Z,3.52
2018-08-12T06:59:24.992Z,4.12
2018-08-12T07:01:53.100Z,4.28
2018-08-12T07:04:21.326Z,4.25
2018-08-12T07:06:49.811Z,3.92
2018-08-12T07:09:17.959Z,3.55
2018-08-12T07:11:46.091Z,4.08
2018-08-12T07:14:14.328Z,3.65
2018-08-12T07:16:42.574Z,3.50
2018-08-12T07:19:11.303Z,3.40
2018-08-12T07:21:39.450Z,3.35
2018-08-12T07:24:07.628Z,3.17
2018-08-12T07:26:35.758Z,3.10
2018-08-12T07:29:03.907Z,3.17
2018-08-12T07:31:32.742Z,3.15
2018-08-12T07:34:01.042Z,3.15
2018-08-12T07:36:29.260Z,3.17
2018-08-12T07:38:57.805Z,3.20
2018-08-12T07:41:26.069Z,3.33
2018-08-12T07:43:54.198Z,3.30
2018-08-12T07:46:22.391Z,4.15
2018-08-12T07:48:50.565Z,2.83
2018-08-12T07:51:19.029Z,3.00
2018-08-12T07:53:47.154Z,2.83
2018-08-12T07:56:15.427Z,2.67
2018-08-12T07:58:43.993Z,2.62
2018-08-12T08:01:12.375Z,3.08
2018-08-12T08:03:40.610Z,2.90
2018-08-12T08:06:08.745Z,3.30
2018-08-12T08:08:36.831Z,3.15
2018-08-12T08:11:05.174Z,2.47
2018-08-12T08:13:33.563Z,3.00
2018-08-12T08:16:01.706Z,2.35
2018-08-12T08:18:29.807Z,2.67
2018-08-12T08:20:57.969Z,3.02
2018-08-12T08:23:26.134Z,2.70
2018-08-12T08:25:54.397Z,2.62
2018-08-12T08:28:22.438Z,2.62
2018-08-12T08:30:50.562Z,2.45
2018-08-12T08:33:18.816Z,2.47
2018-08-12T08:35:46.919Z,2.22
2018-08-12T08:38:15.185Z,2.67
2018-08-12T08:40:43.474Z,2.70
2018-08-12T08:43:11.594Z,2.45
2018-08-12T08:45:39.854Z,2.83
2018-08-12T08:48:08.075Z,2.58
2018-08-12T08:50:36.248Z,2.50
2018-08-12T08:53:04.383Z,2.67
2018-08-12T08:55:32.567Z,2.62
2018-08-12T08:58:00.627Z,2.33
2018-08-12T09:00:28.822Z,2.80
2018-08-12T09:02:57.023Z,2.58
2018-08-12T09:05:25.198Z,2.50
2018-08-12T09:07:53.501Z,2.27
2018-08-12T09:10:21.778Z,2.42
2018-08-12T09:12:49.962Z,2.95
2018-08-12T09:15:19.256Z,2.25
2018-08-12T09:17:48.025Z,2.45
2018-08-12T09:20:17.498Z,2.58
2018-08-12T09:22:45.662Z,2.45
2018-08-12T09:25:18.963Z,2.52
2018-08-12T09:27:47.082Z,2.55
2018-08-12T09:30:17.406Z,2.08
2018-08-12T09:32:46.270Z,2.75
2018-08-12T09:35:14.697Z,2.33
2018-08-12T09:37:43.048Z,2.92
2018-08-12T09:40:14.160Z,2.65
2018-08-12T09:42:43.379Z,2.70
2018-08-12T09:45:13.745Z,2.25
2018-08-12T09:47:41.865Z,2.30
2018-08-12T09:50:10.966Z,2.33
2018-08-12T09:52:39.442Z,2.45
2018-08-12T09:55:08.766Z,2.47
2018-08-12T09:57:36.949Z,2.27
2018-08-12T10:00:08.874Z,2.70
2018-08-12T10:02:37.239Z,2.30
2018-08-12T10:05:06.109Z,2.15
2018-08-12T10:07:34.348Z,2.25
2018-08-12T10:10:03.400Z,2.35
2018-08-12T10:12:31.502Z,2.40
2018-08-12T10:14:59.627Z,2.12
2018-08-12T10:17:31.701Z,2.25
2018-08-12T10:19:59.843Z,2.10
2018-08-12T10:22:27.986Z,2.30
2018-08-12T10:24:56.111Z,2.45
2018-08-12T10:27:24.541Z,2.02
2018-08-12T10:29:52.695Z,1.98
2018-08-12T10:32:20.921Z,2.12
2018-08-12T10:34:49.170Z,2.00
2018-08-12T10:37:17.283Z,1.80
2018-08-12T10:39:45.595Z,1.90
2018-08-12T10:42:13.822Z,2.58
2018-08-12T10:44:42.092Z,2.40
2018-08-12T10:47:10.218Z,2.12
2018-08-12T10:49:38.377Z,2.08
2018-08-12T10:52:06.552Z,2.30
2018-08-12T10:54:34.768Z,1.70
2018-08-12T10:57:03.006Z,1.50
2018-08-12T10:59:31.217Z,1.75
2018-08-12T11:01:59.290Z,1.70
2018-08-12T11:04:27.611Z,1.80
2018-08-12T11:06:55.719Z,1.85
2018-08-12T11:09:23.978Z,1.70
2018-08-12T11:11:52.119Z,1.52
2018-08-12T11:14:20.394Z,1.85
2018-08-12T11:16:48.670Z,1.50
2018-08-12T11:19:16.793Z,1.57
2018-08-12T11:21:44.960Z,1.60
2018-08-12T11:24:13.162Z,1.80
2018-08-12T11:26:41.281Z,1.70
2018-08-12T11:29:09.570Z,1.87
2018-08-12T11:31:37.674Z,1.45
2018-08-12T11:34:05.843Z,1.52
2018-08-12T11:36:34.827Z,1.98
2018-08-12T11:39:02.966Z,1.65
2018-08-12T11:41:31.086Z,1.98
2018-08-12T11:43:59.330Z,1.35
2018-08-12T11:46:27.478Z,1.82
2018-08-12T11:48:55.627Z,1.72
2018-08-12T11:51:23.947Z,2.00
2018-08-12T11:53:52.073Z,1.60
2018-08-12T11:56:20.226Z,1.62
2018-08-12T11:58:48.374Z,1.40
2018-08-12T12:01:16.523Z,1.60
2018-08-12T12:03:44.652Z,1.82
2018-08-12T12:06:13.201Z,1.92
2018-08-12T12:08:41.328Z,1.75
2018-08-12T12:11:09.536Z,1.47
2018-08-12T12:13:37.638Z,1.50
2018-08-12T12:16:05.933Z,1.82
2018-08-12T12:18:34.073Z,1.57
2018-08-12T12:21:02.530Z,1.70
2018-08-12T12:23:30.682Z,1.90
2018-08-12T12:25:58.828Z,1.80
2018-08-12T12:28:27.066Z,1.80
2018-08-12T12:30:55.215Z,1.90
2018-08-12T12:33:23.363Z,1.87
2018-08-12T12:35:51.498Z,1.90
2018-08-12T12:38:19.620Z,1.85
2018-08-12T12:40:47.770Z,1.90
2018-08-12T12:43:15.918Z,1.87
2018-08-12T12:45:44.461Z,1.82
2018-08-12T12:48:12.842Z,1.82
2018-08-12T12:50:41.022Z,2.95
2018-08-12T12:53:09.136Z,4.12
2018-08-12T12:55:37.260Z,4.95
2018-08-12T12:58:05.432Z,6.45
2018-08-12T13:00:33.799Z,8.50
2018-08-12T13:03:02.075Z,7.92
2018-08-12T13:05:30.220Z,9.28
2018-08-12T13:07:58.384Z,8.58
2018-08-12T13:10:26.594Z,9.33
2018-08-12T13:12:54.752Z,8.50
2018-08-12T13:15:22.886Z,4.97
2018-08-12T13:17:51.030Z,5.70
2018-08-12T13:20:20.405Z,8.63
2018-08-12T13:22:49.202Z,4.40
2018-08-12T13:25:18.914Z,5.35
2018-08-12T13:27:47.294Z,7.85
2018-08-12T13:30:16.701Z,7.62
2018-08-12T13:32:46.024Z,7.87
2018-08-12T13:35:14.306Z,6.67
2018-08-12T13:37:42.531Z,6.83
2018-08-12T13:40:12.509Z,5.83
2018-08-12T13:42:41.399Z,5.80
2018-08-12T13:45:10.812Z,5.25
2018-08-12T13:47:39.418Z,5.05
2018-08-12T13:50:10.153Z,4.40
2018-08-12T13:52:38.277Z,4.30
2018-08-12T13:55:06.734Z,3.37
2018-08-12T13:57:35.345Z,3.20
2018-08-12T14:00:03.506Z,2.70
2018-08-12T14:02:31.659Z,3.83
2018-08-12T14:04:59.777Z,3.35
2018-08-12T14:07:27.963Z,3.58
2018-08-12T14:09:56.271Z,2.70
2018-08-12T14:12:24.395Z,2.72
2018-08-12T14:14:52.539Z,2.90
2018-08-12T14:17:20.765Z,2.65
2018-08-12T14:19:48.965Z,2.62
2018-08-12T14:22:17.279Z,2.30
2018-08-12T14:24:45.465Z,2.25
2018-08-12T14:27:13.746Z,2.40
2018-08-12T14:29:42.050Z,2.52
2018-08-12T14:32:10.302Z,2.90
2018-08-12T14:34:38.866Z,1.70
2018-08-12T14:37:07.094Z,2.08
2018-08-12T14:39:35.233Z,2.00
2018-08-12T14:42:03.369Z,1.82
2018-08-12T14:44:31.570Z,2.00
2018-08-12T14:46:59.819Z,1.95
2018-08-12T14:49:27.935Z,1.77
2018-08-12T14:51:56.181Z,1.80
2018-08-12T14:54:24.343Z,1.75
2018-08-12T14:56:52.475Z,1.87
2018-08-12T14:59:20.670Z,1.75
2018-08-12T15:01:48.801Z,1.77
2018-08-12T15:04:17.382Z,2.00
2018-08-12T15:06:46.339Z,2.00
2018-08-12T15:09:14.474Z,2.00
2018-08-12T15:11:42.778Z,1.52
2018-08-12T15:14:10.913Z,1.50
2018-08-12T15:16:39.318Z,1.75
2018-08-12T15:19:07.430Z,1.50
2018-08-12T15:21:35.576Z,1.57
2018-08-12T15:24:03.739Z,1.67
2018-08-12T15:26:31.897Z,1.80
2018-08-12T15:29:00.114Z,1.30
2018-08-12T15:31:28.333Z,1.55
2018-08-12T15:33:56.497Z,1.57
2018-08-12T15:36:24.812Z,1.40
2018-08-12T15:38:52.942Z,1.70
2018-08-12T15:41:21.192Z,1.55
2018-08-12T15:43:49.342Z,1.60
2018-08-12T15:46:17.498Z,1.40
2018-08-12T15:48:45.634Z,1.98
2018-08-12T15:51:13.832Z,1.75
2018-08-12T15:53:41.951Z,1.92
2018-08-12T15:56:10.194Z,1.85
2018-08-12T15:58:38.376Z,1.50
2018-08-12T16:01:06.754Z,1.65
2018-08-12T16:03:34.997Z,1.75
2018-08-12T16:06:03.303Z,1.70
2018-08-12T16:08:31.454Z,1.95
2018-08-12T16:10:59.592Z,1.55
2018-08-12T16:13:27.830Z,1.65
2018-08-12T16:15:56.039Z,1.80
2018-08-12T16:18:24.499Z,1.60
2018-08-12T16:20:52.643Z,2.10
2018-08-12T16:23:20.900Z,2.00
2018-08-12T16:25:49.038Z,2.00
2018-08-12T16:28:17.178Z,2.05
2018-08-12T16:30:45.599Z,1.82
2018-08-12T16:33:13.760Z,1.98
2018-08-12T16:35:42.463Z,1.70
2018-08-12T16:38:10.651Z,1.70
2018-08-12T16:40:38.895Z,1.90
2018-08-12T16:43:07.362Z,2.30
2018-08-12T16:45:35.554Z,2.42
2018-08-12T16:48:03.705Z,2.42
2018-08-12T16:50:32.120Z,2.30
2018-08-12T16:53:00.240Z,2.17
2018-08-12T16:55:28.638Z,1.87
2018-08-12T16:57:56.870Z,2.65
2018-08-12T17:00:26.794Z,3.30
2018-08-12T17:02:54.962Z,3.35
2018-08-12T17:05:23.791Z,2.83
2018-08-12T17:07:52.160Z,2.72
2018-08-12T17:10:20.818Z,2.27
2018-08-12T17:12:49.037Z,2.20
2018-08-12T17:15:19.790Z,1.92
2018-08-12T17:17:48.623Z,2.25
2018-08-12T17:20:17.958Z,1.98
2018-08-12T17:22:46.738Z,2.20
2018-08-12T17:25:15.035Z,2.05
2018-08-12T17:27:43.420Z,2.35
2018-08-12T17:30:13.293Z,2.10
2018-08-12T17:32:41.464Z,2.33
2018-08-12T17:35:10.283Z,1.95
2018-08-12T17:37:38.991Z,1.75
2018-08-12T17:40:09.166Z,1.90
2018-08-12T17:42:37.450Z,1.92
2018-08-12T17:45:06.972Z,1.70
2018-08-12T17:47:35.143Z,1.70
2018-08-12T17:50:03.370Z,1.70
2018-08-12T17:52:31.607Z,1.60
2018-08-12T17:54:59.703Z,1.90
2018-08-12T17:57:27.958Z,2.33
2018-08-12T17:59:56.153Z,1.85
2018-08-12T18:02:24.556Z,1.87
2018-08-12T18:04:52.795Z,1.77
2018-08-12T18:07:21.027Z,2.45
2018-08-12T18:09:49.327Z,1.87
2018-08-12T18:12:17.664Z,1.90
2018-08-12T18:14:45.778Z,1.70
2018-08-12T18:17:14.091Z,1.85
2018-08-12T18:19:42.235Z,3.02
2018-08-12T18:22:10.554Z,2.00
2018-08-12T18:24:38.857Z,1.80
2018-08-12T18:27:07.104Z,2.35
2018-08-12T18:29:35.363Z,2.08
2018-08-12T18:32:04.068Z,1.70
2018-08-12T18:34:32.462Z,2.47
2018-08-12T18:37:03.410Z,2.60
2018-08-12T18:39:31.566Z,2.20
2018-08-12T18:41:59.800Z,2.15
2018-08-12T18:44:27.914Z,2.40
2018-08-12T18:46:56.092Z,2.22
2018-08-12T18:49:24.455Z,2.20
2018-08-12T18:51:52.714Z,2.20
2018-08-12T18:54:21.276Z,2.35
2018-08-12T18:56:49.402Z,3.05
2018-08-12T18:59:17.863Z,2.12
2018-08-12T19:01:46.079Z,2.70
2018-08-12T19:04:14.246Z,2.25
2018-08-12T19:06:42.486Z,2.08
2018-08-12T19:09:11.538Z,2.55
2018-08-12T19:11:39.780Z,2.50
2018-08-12T19:14:08.295Z,3.00
2018-08-12T19:16:36.630Z,2.50
2018-08-12T19:19:05.127Z,2.90
2018-08-12T19:21:33.342Z,3.30
2018-08-12T19:24:01.687Z,2.80
2018-08-12T19:26:30.235Z,3.70
2018-08-12T19:28:58.547Z,3.33
2018-08-12T19:31:27.085Z,3.22
2018-08-12T19:33:55.398Z,3.67
2018-08-12T19:36:23.842Z,3.00
2018-08-12T19:38:52.067Z,3.15
2018-08-12T19:41:20.254Z,3.60
2018-08-12T19:43:48.497Z,2.77
2018-08-12T19:46:16.619Z,4.40
2018-08-12T19:48:45.047Z,3.10
2018-08-12T19:51:14.370Z,3.77
2018-08-12T19:53:43.182Z,2.92
2018-08-12T19:56:12.060Z,3.00
2018-08-12T19:58:40.375Z,2.92
2018-08-12T20:01:08.626Z,3.45
2018-08-12T20:03:36.750Z,3.00
2018-08-12T20:06:05.262Z,3.50
2018-08-12T20:08:33.407Z,3.20
2018-08-12T20:11:02.594Z,3.20
2018-08-12T20:13:30.818Z,3.08
2018-08-12T20:15:59.223Z,3.05
2018-08-12T20:18:27.495Z,3.30
2018-08-12T20:20:55.702Z,2.98
2018-08-12T20:23:24.687Z,3.52
2018-08-12T20:25:53.040Z,3.45
2018-08-12T20:28:21.497Z,3.75
2018-08-12T20:30:49.615Z,3.60
2018-08-12T20:33:17.853Z,3.30
2018-08-12T20:35:45.942Z,3.62
2018-08-12T20:38:14.185Z,3.83
2018-08-12T20:40:42.499Z,3.85
2018-08-12T20:43:10.606Z,3.70
2018-08-12T20:45:38.764Z,4.65
2018-08-12T20:48:06.975Z,4.37
2018-08-12T20:50:35.095Z,4.12
2018-08-12T20:53:03.303Z,7.72
2018-08-12T20:55:31.402Z,7.95
2018-08-12T20:57:59.967Z,5.33
2018-08-12T21:00:28.133Z,5.55
2018-08-12T21:02:56.379Z,4.17
2018-08-12T21:05:25.129Z,4.30
2018-08-12T21:07:53.222Z,3.95
2018-08-12T21:10:21.498Z,4.65
2018-08-12T21:12:49.684Z,3.87
2018-08-12T21:15:17.787Z,4.05
2018-08-12T21:17:46.324Z,3.60
2018-08-12T21:20:14.447Z,3.25
2018-08-12T21:22:42.584Z,3.92
2018-08-12T21:25:10.808Z,3.52
2018-08-12T21:27:39.030Z,3.47
2018-08-12T21:30:07.550Z,3.70
2018-08-12T21:32:35.825Z,5.67
2018-08-12T21:35:03.976Z,5.62
2018-08-12T21:37:32.158Z,4.47
2018-08-12T21:40:24.727Z,4.47
2018-08-12T21:42:53.022Z,3.80
2018-08-12T21:45:21.210Z,3.72
2018-08-12T21:47:49.328Z,3.85
2018-08-12T21:50:17.458Z,3.60
2018-08-12T21:52:46.195Z,3.58
2018-08-12T21:55:14.511Z,3.58
2018-08-12T21:57:42.807Z,3.20
2018-08-12T22:00:13.735Z,3.27
2018-08-12T22:02:46.520Z,13.03
2018-08-12T22:05:15.012Z,7.70
2018-08-12T22:07:43.198Z,5.15
2018-08-12T22:10:11.487Z,3.45
2018-08-12T22:12:39.731Z,3.42
2018-08-12T22:15:08.543Z,3.65
2018-08-12T22:17:37.049Z,2.62
2018-08-12T22:20:05.913Z,3.10
2018-08-12T22:22:34.569Z,2.85
2018-08-12T22:25:02.691Z,2.30
2018-08-12T22:27:30.987Z,2.47
2018-08-12T22:29:59.247Z,3.30
2018-08-12T22:32:27.614Z,3.17
2018-08-12T22:34:58.687Z,7.00
2018-08-12T22:37:26.967Z,5.80
2018-08-12T22:39:55.102Z,5.03
2018-08-12T22:42:23.223Z,3.95
2018-08-12T22:44:52.347Z,3.72
2018-08-12T22:47:20.543Z,3.72
2018-08-12T22:49:48.752Z,3.75
2018-08-12T22:52:16.939Z,3.55
2018-08-12T22:54:45.051Z,3.65
2018-08-12T22:57:13.454Z,3.50
2018-08-12T22:59:41.719Z,3.87
2018-08-12T23:02:10.162Z,3.37
2018-08-12T23:04:38.286Z,4.00
2018-08-12T23:07:06.482Z,3.17
2018-08-12T23:09:34.779Z,3.10
2018-08-12T23:12:02.923Z,3.42
2018-08-12T23:14:31.040Z,3.27
2018-08-12T23:17:00.918Z,3.65
2018-08-12T23:19:29.303Z,3.70
2018-08-12T23:21:57.698Z,3.15
2018-08-12T23:24:25.794Z,3.55
2018-08-12T23:26:54.100Z,3.47
2018-08-12T23:29:22.258Z,2.87
2018-08-12T23:31:50.522Z,3.05
2018-08-12T23:34:19.012Z,3.40
2018-08-12T23:36:47.100Z,3.22
2018-08-12T23:39:15.490Z,3.02
2018-08-12T23:41:43.660Z,3.20
2018-08-12T23:44:11.810Z,3.60
2018-08-12T23:46:40.010Z,2.87
2018-08-12T23:49:08.138Z,2.85
2018-08-12T23:51:36.400Z,3.20
2018-08-12T23:54:04.654Z,3.08
2018-08-12T23:56:32.751Z,2.90
2018-08-12T23:59:00.841Z,3.58
